sensor_id;sensor_type;location;lat;lon;timestamp;pressure;altitude;pressure_sealevel;temperature;humidity
4392;BME280;2210;51.938;8.488;2023-10-19T00:03:29;98665.75;;;9.42;100.00
4392;BME280;2210;51.938;8.488;2023-10-19T00:07:29;98654.22;;;9.40;100.00
4392;BME280;2210;51.938;8.488;2023-10-19T00:11:30;98660.00;;;9.39;100.00
4392;BME280;2210;51.938;8.488;2023-10-19T00:15:32;98650.38;;;9.36;100.00
4392;BME280;2210;51.938;8.488;2023-10-19T00:19:34;98638.53;;;9.36;100.00
4392;BME280;2210;51.938;8.488;2023-10-19T00:23:58;98645.41;;;9.33;100.00
4392;BME280;2210;51.938;8.488;2023-10-19T00:27:59;98642.69;;;9.28;100.00
4392;BME280;2210;51.938;8.488;2023-10-19T00:32:01;98635.81;;;9.25;100.00
4392;BME280;2210;51.938;8.488;2023-10-19T00:36:02;98625.09;;;9.24;100.00
4392;BME280;2210;51.938;8.488;2023-10-19T00:40:11;98624.53;;;9.22;100.00
4392;BME280;2210;51.938;8.488;2023-10-19T00:44:19;98614.09;;;9.24;100.00
4392;BME280;2210;51.938;8.488;2023-10-19T00:48:26;98621.22;;;9.25;100.00
4392;BME280;2210;51.938;8.488;2023-10-19T00:52:27;98619.59;;;9.19;100.00
4392;BME280;2210;51.938;8.488;2023-10-19T00:56:31;98610.78;;;9.17;100.00
4392;BME280;2210;51.938;8.488;2023-10-19T01:00:33;98594.03;;;9.08;100.00
4392;BME280;2210;51.938;8.488;2023-10-19T01:04:38;98587.69;;;9.07;100.00
4392;BME280;2210;51.938;8.488;2023-10-19T01:08:42;98579.19;;;9.09;100.00
4392;BME280;2210;51.938;8.488;2023-10-19T01:12:46;98568.44;;;9.07;100.00
4392;BME280;2210;51.938;8.488;2023-10-19T01:16:46;98565.69;;;9.07;100.00
4392;BME280;2210;51.938;8.488;2023-10-19T01:20:48;98559.09;;;9.08;100.00
4392;BME280;2210;51.938;8.488;2023-10-19T01:24:50;98555.81;;;9.11;100.00
4392;BME280;2210;51.938;8.488;2023-10-19T01:28:53;98548.13;;;9.08;100.00
4392;BME280;2210;51.938;8.488;2023-10-19T01:33:00;98542.34;;;9.10;100.00
4392;BME280;2210;51.938;8.488;2023-10-19T01:37:01;98541.53;;;9.09;100.00
4392;BME280;2210;51.938;8.488;2023-10-19T01:41:08;98539.34;;;9.06;100.00
4392;BME280;2210;51.938;8.488;2023-10-19T01:45:22;98533.84;;;9.06;100.00
4392;BME280;2210;51.938;8.488;2023-10-19T01:49:22;98528.63;;;9.05;100.00
4392;BME280;2210;51.938;8.488;2023-10-19T01:53:28;98526.41;;;9.07;100.00
4392;BME280;2210;51.938;8.488;2023-10-19T01:57:29;98518.72;;;9.04;100.00
4392;BME280;2210;51.938;8.488;2023-10-19T02:01:30;98511.84;;;9.06;100.00
4392;BME280;2210;51.938;8.488;2023-10-19T02:05:32;98510.47;;;9.04;100.00
4392;BME280;2210;51.938;8.488;2023-10-19T02:09:39;98498.91;;;9.07;100.00
4392;BME280;2210;51.938;8.488;2023-10-19T02:13:39;98506.34;;;9.11;100.00
4392;BME280;2210;51.938;8.488;2023-10-19T02:17:40;98488.44;;;9.14;100.00
4392;BME280;2210;51.938;8.488;2023-10-19T02:21:51;98475.53;;;9.15;100.00
4392;BME280;2210;51.938;8.488;2023-10-19T02:25:52;98476.91;;;9.17;100.00
4392;BME280;2210;51.938;8.488;2023-10-19T02:29:53;98470.56;;;9.22;100.00
4392;BME280;2210;51.938;8.488;2023-10-19T02:33:54;98462.59;;;9.25;100.00
4392;BME280;2210;51.938;8.488;2023-10-19T02:38:03;98463.41;;;9.26;100.00
4392;BME280;2210;51.938;8.488;2023-10-19T02:42:04;98454.34;;;9.31;100.00
4392;BME280;2210;51.938;8.488;2023-10-19T02:46:08;98445.50;;;9.34;100.00
4392;BME280;2210;51.938;8.488;2023-10-19T02:50:11;98443.56;;;9.34;100.00
4392;BME280;2210;51.938;8.488;2023-10-19T02:54:18;98441.66;;;9.35;100.00
4392;BME280;2210;51.938;8.488;2023-10-19T02:58:20;98438.63;;;9.36;100.00
4392;BME280;2210;51.938;8.488;2023-10-19T03:02:20;98429.00;;;9.39;100.00
4392;BME280;2210;51.938;8.488;2023-10-19T03:06:28;98449.84;;;9.45;100.00
4392;BME280;2210;51.938;8.488;2023-10-19T03:10:39;98428.69;;;9.45;100.00
4392;BME280;2210;51.938;8.488;2023-10-19T03:14:42;98431.97;;;9.48;100.00
4392;BME280;2210;51.938;8.488;2023-10-19T03:18:48;98425.09;;;9.50;100.00
4392;BME280;2210;51.938;8.488;2023-10-19T03:22:50;98425.91;;;9.51;100.00
4392;BME280;2210;51.938;8.488;2023-10-19T03:26:50;98423.41;;;9.54;100.00
4392;BME280;2210;51.938;8.488;2023-10-19T03:30:53;98415.44;;;9.58;100.00
4392;BME280;2210;51.938;8.488;2023-10-19T03:34:58;98412.91;;;9.61;100.00
4392;BME280;2210;51.938;8.488;2023-10-19T03:39:10;98409.31;;;9.71;100.00
4392;BME280;2210;51.938;8.488;2023-10-19T03:43:13;98399.41;;;9.70;100.00
4392;BME280;2210;51.938;8.488;2023-10-19T03:47:17;98393.31;;;9.73;100.00
4392;BME280;2210;51.938;8.488;2023-10-19T03:51:25;98394.13;;;9.79;100.00
4392;BME280;2210;51.938;8.488;2023-10-19T03:55:29;98391.06;;;9.81;100.00
4392;BME280;2210;51.938;8.488;2023-10-19T03:59:30;98392.16;;;9.85;100.00
4392;BME280;2210;51.938;8.488;2023-10-19T04:03:40;98386.38;;;9.86;100.00
4392;BME280;2210;51.938;8.488;2023-10-19T04:07:40;98383.06;;;9.89;100.00
4392;BME280;2210;51.938;8.488;2023-10-19T04:11:52;98385.22;;;9.92;100.00
4392;BME280;2210;51.938;8.488;2023-10-19T04:15:53;98383.53;;;9.96;100.00
4392;BME280;2210;51.938;8.488;2023-10-19T04:19:56;98381.34;;;9.99;100.00
4392;BME280;2210;51.938;8.488;2023-10-19T04:23:56;98378.28;;;10.00;100.00
4392;BME280;2210;51.938;8.488;2023-10-19T04:28:00;98377.41;;;10.05;100.00
4392;BME280;2210;51.938;8.488;2023-10-19T04:32:03;98368.31;;;10.09;100.00
4392;BME280;2210;51.938;8.488;2023-10-19T04:36:14;98377.88;;;10.17;100.00
4392;BME280;2210;51.938;8.488;2023-10-19T04:40:14;98361.09;;;10.19;100.00
4392;BME280;2210;51.938;8.488;2023-10-19T04:44:15;98361.03;;;10.24;100.00
4392;BME280;2210;51.938;8.488;2023-10-19T04:48:18;98355.22;;;10.25;100.00
4392;BME280;2210;51.938;8.488;2023-10-19T04:52:18;98347.22;;;10.29;100.00
4392;BME280;2210;51.938;8.488;2023-10-19T04:56:22;98348.28;;;10.33;100.00
4392;BME280;2210;51.938;8.488;2023-10-19T05:00:22;98341.94;;;10.38;100.00
4392;BME280;2210;51.938;8.488;2023-10-19T05:04:24;98345.47;;;10.43;100.00
4392;BME280;2210;51.938;8.488;2023-10-19T05:08:24;98345.19;;;10.45;100.00
4392;BME280;2210;51.938;8.488;2023-10-19T05:12:25;98343.22;;;10.45;100.00
4392;BME280;2210;51.938;8.488;2023-10-19T05:16:25;98346.22;;;10.49;100.00
4392;BME280;2210;51.938;8.488;2023-10-19T05:20:26;98348.41;;;10.52;100.00
4392;BME280;2210;51.938;8.488;2023-10-19T05:24:35;98340.38;;;10.56;100.00
4392;BME280;2210;51.938;8.488;2023-10-19T05:28:38;98341.44;;;10.60;100.00
4392;BME280;2210;51.938;8.488;2023-10-19T05:32:38;98340.56;;;10.65;100.00
4392;BME280;2210;51.938;8.488;2023-10-19T05:36:38;98338.63;;;10.65;100.00
4392;BME280;2210;51.938;8.488;2023-10-19T05:40:48;98338.59;;;10.70;100.00
4392;BME280;2210;51.938;8.488;2023-10-19T05:44:50;98336.06;;;10.74;100.00
4392;BME280;2210;51.938;8.488;2023-10-19T05:48:52;98345.91;;;10.80;100.00
4392;BME280;2210;51.938;8.488;2023-10-19T05:52:56;98360.47;;;10.86;100.00
4392;BME280;2210;51.938;8.488;2023-10-19T05:57:05;98351.66;;;10.84;100.00
4392;BME280;2210;51.938;8.488;2023-10-19T06:01:11;98359.66;;;10.85;100.00
4392;BME280;2210;51.938;8.488;2023-10-19T06:05:13;98356.59;;;10.87;100.00
4392;BME280;2210;51.938;8.488;2023-10-19T06:09:22;98368.97;;;10.89;100.00
4392;BME280;2210;51.938;8.488;2023-10-19T06:13:29;98368.69;;;10.91;100.00
4392;BME280;2210;51.938;8.488;2023-10-19T06:17:32;98371.66;;;10.94;100.00
4392;BME280;2210;51.938;8.488;2023-10-19T06:21:36;98373.59;;;10.94;100.00
4392;BME280;2210;51.938;8.488;2023-10-19T06:25:37;98374.66;;;10.98;100.00
4392;BME280;2210;51.938;8.488;2023-10-19T06:29:38;98375.72;;;11.02;100.00
4392;BME280;2210;51.938;8.488;2023-10-19T06:33:38;98375.41;;;11.04;100.00
4392;BME280;2210;51.938;8.488;2023-10-19T06:37:41;98369.25;;;11.12;100.00
4392;BME280;2210;51.938;8.488;2023-10-19T06:41:44;98371.25;;;11.06;100.00
4392;BME280;2210;51.938;8.488;2023-10-19T06:45:45;98378.28;;;11.18;100.00
4392;BME280;2210;51.938;8.488;2023-10-19T06:49:49;98371.06;;;11.22;100.00
4392;BME280;2210;51.938;8.488;2023-10-19T06:53:53;98364.66;;;11.26;100.00
4392;BME280;2210;51.938;8.488;2023-10-19T06:57:54;98378.59;;;11.35;100.00
4392;BME280;2210;51.938;8.488;2023-10-19T07:01:55;98385.72;;;11.41;100.00
4392;BME280;2210;51.938;8.488;2023-10-19T07:05:55;98389.53;;;11.45;100.00
4392;BME280;2210;51.938;8.488;2023-10-19T07:09:58;98374.81;;;11.50;100.00
4392;BME280;2210;51.938;8.488;2023-10-19T07:13:58;98381.69;;;11.53;100.00
4392;BME280;2210;51.938;8.488;2023-10-19T07:17:58;98389.09;;;11.57;100.00
4392;BME280;2210;51.938;8.488;2023-10-19T07:21:59;98386.19;;;11.68;100.00
4392;BME280;2210;51.938;8.488;2023-10-19T07:25:59;98380.34;;;11.69;100.00
4392;BME280;2210;51.938;8.488;2023-10-19T07:30:01;98382.25;;;11.74;100.00
4392;BME280;2210;51.938;8.488;2023-10-19T07:34:03;98382.47;;;11.77;100.00
4392;BME280;2210;51.938;8.488;2023-10-19T07:38:03;98389.63;;;11.78;100.00
4392;BME280;2210;51.938;8.488;2023-10-19T07:42:04;98397.53;;;11.85;100.00
4392;BME280;2210;51.938;8.488;2023-10-19T07:46:07;98392.47;;;11.92;100.00
4392;BME280;2210;51.938;8.488;2023-10-19T07:50:09;98387.41;;;12.00;100.00
4392;BME280;2210;51.938;8.488;2023-10-19T07:54:16;98386.72;;;12.08;100.00
4392;BME280;2210;51.938;8.488;2023-10-19T07:58:16;98383.59;;;12.14;100.00
4392;BME280;2210;51.938;8.488;2023-10-19T08:02:16;98391.88;;;12.14;100.00
4392;BME280;2210;51.938;8.488;2023-10-19T08:06:16;98395.69;;;12.19;100.00
4392;BME280;2210;51.938;8.488;2023-10-19T08:10:20;98399.41;;;12.28;100.00
4392;BME280;2210;51.938;8.488;2023-10-19T08:14:25;98395.78;;;12.27;100.00
4392;BME280;2210;51.938;8.488;2023-10-19T08:18:25;98390.44;;;12.36;100.00
4392;BME280;2210;51.938;8.488;2023-10-19T08:22:25;98392.88;;;12.38;100.00
4392;BME280;2210;51.938;8.488;2023-10-19T08:26:27;98400.69;;;12.50;100.00
4392;BME280;2210;51.938;8.488;2023-10-19T08:30:30;98409.63;;;12.60;100.00
4392;BME280;2210;51.938;8.488;2023-10-19T08:34:35;98409.53;;;12.65;100.00
4392;BME280;2210;51.938;8.488;2023-10-19T08:38:36;98416.00;;;12.75;100.00
4392;BME280;2210;51.938;8.488;2023-10-19T08:42:39;98402.81;;;12.86;100.00
4392;BME280;2210;51.938;8.488;2023-10-19T08:46:42;98409.81;;;12.97;100.00
4392;BME280;2210;51.938;8.488;2023-10-19T08:50:51;98409.41;;;13.04;100.00
4392;BME280;2210;51.938;8.488;2023-10-19T08:54:51;98408.56;;;13.03;100.00
4392;BME280;2210;51.938;8.488;2023-10-19T08:58:52;98406.84;;;13.07;100.00
4392;BME280;2210;51.938;8.488;2023-10-19T09:02:53;98398.97;;;13.14;100.00
4392;BME280;2210;51.938;8.488;2023-10-19T09:06:53;98388.63;;;13.20;100.00
4392;BME280;2210;51.938;8.488;2023-10-19T09:10:55;98396.59;;;13.22;100.00
4392;BME280;2210;51.938;8.488;2023-10-19T09:14:59;98391.16;;;13.30;100.00
4392;BME280;2210;51.938;8.488;2023-10-19T09:19:03;98399.66;;;13.34;100.00
4392;BME280;2210;51.938;8.488;2023-10-19T09:23:03;98396.31;;;13.37;100.00
4392;BME280;2210;51.938;8.488;2023-10-19T09:27:04;98387.28;;;13.45;100.00
4392;BME280;2210;51.938;8.488;2023-10-19T09:31:05;98379.06;;;13.54;100.00
4392;BME280;2210;51.938;8.488;2023-10-19T09:35:07;98383.34;;;13.60;100.00
4392;BME280;2210;51.938;8.488;2023-10-19T09:39:09;98383.47;;;13.69;100.00
4392;BME280;2210;51.938;8.488;2023-10-19T09:43:15;98381.06;;;13.76;100.00
4392;BME280;2210;51.938;8.488;2023-10-19T09:47:28;98386.63;;;13.76;100.00
4392;BME280;2210;51.938;8.488;2023-10-19T09:51:30;98373.88;;;13.89;100.00
4392;BME280;2210;51.938;8.488;2023-10-19T09:55:35;98379.47;;;13.98;100.00
4392;BME280;2210;51.938;8.488;2023-10-19T09:59:46;98374.31;;;14.05;100.00
4392;BME280;2210;51.938;8.488;2023-10-19T10:03:53;98374.19;;;14.10;100.00
4392;BME280;2210;51.938;8.488;2023-10-19T10:12:19;98365.31;;;14.22;100.00
4392;BME280;2210;51.938;8.488;2023-10-19T10:16:37;98361.91;;;14.25;100.00
4392;BME280;2210;51.938;8.488;2023-10-19T10:20:37;98362.00;;;14.34;100.00
4392;BME280;2210;51.938;8.488;2023-10-19T10:24:42;98373.25;;;14.38;100.00
4392;BME280;2210;51.938;8.488;2023-10-19T10:29:08;98374.69;;;14.35;100.00
4392;BME280;2210;51.938;8.488;2023-10-19T10:42:27;98359.00;;;14.53;100.00
4392;BME280;2210;51.938;8.488;2023-10-19T10:46:40;98358.56;;;14.60;100.00
4392;BME280;2210;51.938;8.488;2023-10-19T10:55:37;98340.34;;;14.67;100.00
4392;BME280;2210;51.938;8.488;2023-10-19T10:59:39;98352.44;;;14.72;100.00
4392;BME280;2210;51.938;8.488;2023-10-19T11:03:45;98353.75;;;14.74;100.00
4392;BME280;2210;51.938;8.488;2023-10-19T11:08:23;98348.94;;;14.89;100.00
4392;BME280;2210;51.938;8.488;2023-10-19T11:12:24;98334.47;;;15.00;100.00
4392;BME280;2210;51.938;8.488;2023-10-19T11:16:24;98343.28;;;15.03;100.00
4392;BME280;2210;51.938;8.488;2023-10-19T11:20:31;98343.78;;;15.05;100.00
4392;BME280;2210;51.938;8.488;2023-10-19T11:24:43;98329.59;;;15.06;100.00
4392;BME280;2210;51.938;8.488;2023-10-19T11:28:43;98337.78;;;15.11;100.00
4392;BME280;2210;51.938;8.488;2023-10-19T11:32:47;98331.75;;;15.18;100.00
4392;BME280;2210;51.938;8.488;2023-10-19T11:36:54;98331.75;;;15.27;100.00
4392;BME280;2210;51.938;8.488;2023-10-19T11:41:16;98331.63;;;15.32;100.00
4392;BME280;2210;51.938;8.488;2023-10-19T11:45:26;98334.41;;;15.41;100.00
4392;BME280;2210;51.938;8.488;2023-10-19T11:49:29;98326.25;;;15.44;100.00
4392;BME280;2210;51.938;8.488;2023-10-19T11:53:39;98323.31;;;15.49;100.00
4392;BME280;2210;51.938;8.488;2023-10-19T11:57:40;98320.88;;;15.57;100.00
4392;BME280;2210;51.938;8.488;2023-10-19T12:01:43;98318.59;;;15.67;100.00
4392;BME280;2210;51.938;8.488;2023-10-19T12:05:44;98327.91;;;15.72;100.00
4392;BME280;2210;51.938;8.488;2023-10-19T12:09:47;98317.44;;;15.77;100.00
4392;BME280;2210;51.938;8.488;2023-10-19T12:13:52;98317.97;;;15.88;100.00
4392;BME280;2210;51.938;8.488;2023-10-19T12:17:59;98315.03;;;16.02;100.00
4392;BME280;2210;51.938;8.488;2023-10-19T12:22:19;98323.88;;;15.95;100.00
4392;BME280;2210;51.938;8.488;2023-10-19T12:26:46;98326.47;;;15.92;100.00
4392;BME280;2210;51.938;8.488;2023-10-19T12:30:46;98312.75;;;15.87;100.00
4392;BME280;2210;51.938;8.488;2023-10-19T12:34:59;98321.56;;;15.80;100.00
4392;BME280;2210;51.938;8.488;2023-10-19T12:39:05;98307.50;;;15.76;100.00
4392;BME280;2210;51.938;8.488;2023-10-19T12:43:05;98305.53;;;15.77;100.00
4392;BME280;2210;51.938;8.488;2023-10-19T12:47:11;98299.16;;;15.76;100.00
4392;BME280;2210;51.938;8.488;2023-10-19T12:51:14;98293.78;;;15.80;100.00
4392;BME280;2210;51.938;8.488;2023-10-19T12:55:18;98294.28;;;15.91;100.00
4392;BME280;2210;51.938;8.488;2023-10-19T12:59:30;98278.75;;;15.98;100.00
4392;BME280;2210;51.938;8.488;2023-10-19T13:03:31;98281.03;;;16.05;100.00
4392;BME280;2210;51.938;8.488;2023-10-19T13:07:40;98274.00;;;15.99;100.00
4392;BME280;2210;51.938;8.488;2023-10-19T13:11:43;98269.28;;;15.99;100.00
4392;BME280;2210;51.938;8.488;2023-10-19T13:15:45;98273.00;;;16.12;100.00
4392;BME280;2210;51.938;8.488;2023-10-19T13:19:46;98272.81;;;16.17;100.00
4392;BME280;2210;51.938;8.488;2023-10-19T13:23:46;98274.63;;;16.13;100.00
4392;BME280;2210;51.938;8.488;2023-10-19T13:27:46;98281.84;;;16.14;100.00
4392;BME280;2210;51.938;8.488;2023-10-19T13:31:49;98274.81;;;16.17;100.00
4392;BME280;2210;51.938;8.488;2023-10-19T13:35:56;98266.75;;;16.15;100.00
4392;BME280;2210;51.938;8.488;2023-10-19T13:40:00;98262.00;;;16.25;100.00
4392;BME280;2210;51.938;8.488;2023-10-19T13:44:06;98265.97;;;16.24;100.00
4392;BME280;2210;51.938;8.488;2023-10-19T13:48:11;98269.03;;;16.31;100.00
4392;BME280;2210;51.938;8.488;2023-10-19T13:52:12;98266.47;;;16.17;100.00
4392;BME280;2210;51.938;8.488;2023-10-19T13:56:16;98263.19;;;16.24;100.00
4392;BME280;2210;51.938;8.488;2023-10-19T14:00:17;98260.56;;;16.18;100.00
4392;BME280;2210;51.938;8.488;2023-10-19T14:04:44;98265.75;;;16.29;100.00
4392;BME280;2210;51.938;8.488;2023-10-19T14:08:46;98263.19;;;16.24;100.00
4392;BME280;2210;51.938;8.488;2023-10-19T14:12:50;98260.41;;;16.15;100.00
4392;BME280;2210;51.938;8.488;2023-10-19T14:16:54;98257.97;;;16.13;100.00
4392;BME280;2210;51.938;8.488;2023-10-19T14:21:00;98251.72;;;16.16;100.00
4392;BME280;2210;51.938;8.488;2023-10-19T14:25:04;98255.84;;;16.10;100.00
4392;BME280;2210;51.938;8.488;2023-10-19T14:29:04;98250.13;;;16.07;100.00
4392;BME280;2210;51.938;8.488;2023-10-19T14:33:04;98239.34;;;16.05;100.00
4392;BME280;2210;51.938;8.488;2023-10-19T14:37:13;98234.59;;;16.06;100.00
4392;BME280;2210;51.938;8.488;2023-10-19T14:41:14;98226.88;;;16.11;100.00
4392;BME280;2210;51.938;8.488;2023-10-19T14:45:25;98226.13;;;16.02;100.00
4392;BME280;2210;51.938;8.488;2023-10-19T14:49:38;98218.41;;;15.99;100.00
4392;BME280;2210;51.938;8.488;2023-10-19T14:53:38;98223.97;;;15.99;100.00
4392;BME280;2210;51.938;8.488;2023-10-19T14:57:39;98230.03;;;16.01;100.00
4392;BME280;2210;51.938;8.488;2023-10-19T15:01:40;98223.84;;;15.95;100.00
4392;BME280;2210;51.938;8.488;2023-10-19T15:05:43;98217.44;;;15.95;100.00
4392;BME280;2210;51.938;8.488;2023-10-19T15:09:47;98222.84;;;16.00;100.00
4392;BME280;2210;51.938;8.488;2023-10-19T15:13:48;98221.84;;;15.96;100.00
4392;BME280;2210;51.938;8.488;2023-10-19T15:17:48;98204.88;;;15.89;100.00
4392;BME280;2210;51.938;8.488;2023-10-19T15:21:50;98205.38;;;15.82;100.00
4392;BME280;2210;51.938;8.488;2023-10-19T15:25:50;98207.31;;;15.81;100.00
4392;BME280;2210;51.938;8.488;2023-10-19T15:29:57;98206.19;;;15.82;100.00
4392;BME280;2210;51.938;8.488;2023-10-19T15:34:13;98206.69;;;15.84;100.00
4392;BME280;2210;51.938;8.488;2023-10-19T15:38:28;98205.84;;;15.84;100.00
4392;BME280;2210;51.938;8.488;2023-10-19T15:42:29;98204.03;;;15.79;100.00
4392;BME280;2210;51.938;8.488;2023-10-19T15:46:29;98187.22;;;15.76;100.00
4392;BME280;2210;51.938;8.488;2023-10-19T15:50:34;98189.34;;;15.70;100.00
4392;BME280;2210;51.938;8.488;2023-10-19T15:54:44;98184.47;;;15.67;100.00
4392;BME280;2210;51.938;8.488;2023-10-19T15:58:44;98179.06;;;15.62;100.00
4392;BME280;2210;51.938;8.488;2023-10-19T16:02:44;98179.91;;;15.54;100.00
4392;BME280;2210;51.938;8.488;2023-10-19T16:06:45;98171.25;;;15.46;100.00
4392;BME280;2210;51.938;8.488;2023-10-19T16:10:45;98171.75;;;15.40;100.00
4392;BME280;2210;51.938;8.488;2023-10-19T16:15:04;98162.75;;;15.34;100.00
4392;BME280;2210;51.938;8.488;2023-10-19T16:19:07;98160.47;;;15.27;100.00
4392;BME280;2210;51.938;8.488;2023-10-19T16:23:11;98165.38;;;15.22;100.00
4392;BME280;2210;51.938;8.488;2023-10-19T16:27:14;98154.75;;;15.15;100.00
4392;BME280;2210;51.938;8.488;2023-10-19T16:31:16;98151.34;;;15.09;100.00
4392;BME280;2210;51.938;8.488;2023-10-19T16:35:17;98154.91;;;15.01;100.00
4392;BME280;2210;51.938;8.488;2023-10-19T16:39:17;98149.53;;;14.96;100.00
4392;BME280;2210;51.938;8.488;2023-10-19T16:43:18;98157.53;;;14.89;100.00
4392;BME280;2210;51.938;8.488;2023-10-19T16:47:18;98155.72;;;14.93;100.00
4392;BME280;2210;51.938;8.488;2023-10-19T16:51:22;98155.06;;;14.87;100.00
4392;BME280;2210;51.938;8.488;2023-10-19T16:55:26;98156.03;;;14.82;100.00
4392;BME280;2210;51.938;8.488;2023-10-19T16:59:27;98145.59;;;14.79;100.00
4392;BME280;2210;51.938;8.488;2023-10-19T17:03:30;98138.25;;;14.75;100.00
4392;BME280;2210;51.938;8.488;2023-10-19T17:07:30;98142.81;;;14.71;100.00
4392;BME280;2210;51.938;8.488;2023-10-19T17:11:30;98139.22;;;14.70;100.00
4392;BME280;2210;51.938;8.488;2023-10-19T17:15:38;98145.09;;;14.69;100.00
4392;BME280;2210;51.938;8.488;2023-10-19T17:19:40;98145.75;;;14.65;100.00
4392;BME280;2210;51.938;8.488;2023-10-19T17:23:41;98142.66;;;14.67;100.00
4392;BME280;2210;51.938;8.488;2023-10-19T17:27:41;98136.22;;;14.58;100.00
4392;BME280;2210;51.938;8.488;2023-10-19T17:31:41;98134.09;;;14.55;100.00
4392;BME280;2210;51.938;8.488;2023-10-19T17:35:42;98134.25;;;14.49;100.00
4392;BME280;2210;51.938;8.488;2023-10-19T17:39:43;98131.28;;;14.46;100.00
4392;BME280;2210;51.938;8.488;2023-10-19T17:43:50;98138.31;;;14.43;100.00
4392;BME280;2210;51.938;8.488;2023-10-19T17:47:50;98132.41;;;14.36;100.00
4392;BME280;2210;51.938;8.488;2023-10-19T17:51:51;98119.69;;;14.35;100.00
4392;BME280;2210;51.938;8.488;2023-10-19T17:55:52;98135.66;;;14.29;100.00
4392;BME280;2210;51.938;8.488;2023-10-19T17:59:53;98143.38;;;14.41;100.00
4392;BME280;2210;51.938;8.488;2023-10-19T18:03:58;98136.69;;;14.42;100.00
4392;BME280;2210;51.938;8.488;2023-10-19T18:08:01;98123.13;;;14.32;100.00
4392;BME280;2210;51.938;8.488;2023-10-19T18:12:05;98127.19;;;14.26;100.00
4392;BME280;2210;51.938;8.488;2023-10-19T18:16:05;98133.06;;;14.33;100.00
4392;BME280;2210;51.938;8.488;2023-10-19T18:20:06;98114.66;;;14.28;100.00
4392;BME280;2210;51.938;8.488;2023-10-19T18:24:10;98119.16;;;14.24;100.00
4392;BME280;2210;51.938;8.488;2023-10-19T18:28:12;98118.88;;;14.26;100.00
4392;BME280;2210;51.938;8.488;2023-10-19T18:32:12;98122.44;;;14.26;100.00
4392;BME280;2210;51.938;8.488;2023-10-19T18:36:13;98133.34;;;14.23;100.00
4392;BME280;2210;51.938;8.488;2023-10-19T18:40:13;98134.50;;;14.22;100.00
4392;BME280;2210;51.938;8.488;2023-10-19T18:44:14;98137.13;;;14.27;100.00
4392;BME280;2210;51.938;8.488;2023-10-19T18:48:14;98128.47;;;14.20;100.00
4392;BME280;2210;51.938;8.488;2023-10-19T18:52:14;98119.00;;;14.21;100.00
4392;BME280;2210;51.938;8.488;2023-10-19T18:56:15;98111.16;;;14.14;100.00
4392;BME280;2210;51.938;8.488;2023-10-19T19:00:15;98113.63;;;14.15;100.00
4392;BME280;2210;51.938;8.488;2023-10-19T19:04:23;98093.22;;;14.11;100.00
4392;BME280;2210;51.938;8.488;2023-10-19T19:08:31;98082.94;;;14.12;100.00
4392;BME280;2210;51.938;8.488;2023-10-19T19:12:33;98083.59;;;14.09;100.00
4392;BME280;2210;51.938;8.488;2023-10-19T19:16:34;98075.28;;;14.09;100.00
4392;BME280;2210;51.938;8.488;2023-10-19T19:20:34;98072.34;;;14.05;100.00
4392;BME280;2210;51.938;8.488;2023-10-19T19:24:37;98064.34;;;14.04;100.00
4392;BME280;2210;51.938;8.488;2023-10-19T19:28:38;98073.50;;;14.13;100.00
4392;BME280;2210;51.938;8.488;2023-10-19T19:32:46;98062.91;;;14.06;100.00
4392;BME280;2210;51.938;8.488;2023-10-19T19:36:46;98067.09;;;13.95;100.00
4392;BME280;2210;51.938;8.488;2023-10-19T19:40:47;98072.00;;;13.98;100.00
4392;BME280;2210;51.938;8.488;2023-10-19T19:44:51;98074.91;;;13.93;100.00
4392;BME280;2210;51.938;8.488;2023-10-19T19:48:51;98080.63;;;13.96;100.00
4392;BME280;2210;51.938;8.488;2023-10-19T19:52:51;98089.59;;;14.02;100.00
4392;BME280;2210;51.938;8.488;2023-10-19T19:56:55;98086.97;;;13.97;100.00
4392;BME280;2210;51.938;8.488;2023-10-19T20:00:55;98077.53;;;13.98;100.00
4392;BME280;2210;51.938;8.488;2023-10-19T20:04:57;98063.66;;;13.89;100.00
4392;BME280;2210;51.938;8.488;2023-10-19T20:08:57;98066.44;;;13.89;100.00
4392;BME280;2210;51.938;8.488;2023-10-19T20:12:58;98070.97;;;13.85;100.00
4392;BME280;2210;51.938;8.488;2023-10-19T20:16:58;98072.31;;;13.88;100.00
4392;BME280;2210;51.938;8.488;2023-10-19T20:20:58;98073.69;;;13.76;100.00
4392;BME280;2210;51.938;8.488;2023-10-19T20:24:59;98064.06;;;13.65;100.00
4392;BME280;2210;51.938;8.488;2023-10-19T20:28:59;98067.28;;;13.58;100.00
4392;BME280;2210;51.938;8.488;2023-10-19T20:33:01;98070.84;;;13.59;100.00
4392;BME280;2210;51.938;8.488;2023-10-19T20:37:01;98072.28;;;13.56;100.00
4392;BME280;2210;51.938;8.488;2023-10-19T20:41:01;98067.16;;;13.63;100.00
4392;BME280;2210;51.938;8.488;2023-10-19T20:45:05;98058.50;;;13.65;100.00
4392;BME280;2210;51.938;8.488;2023-10-19T20:49:11;98072.22;;;13.70;100.00
4392;BME280;2210;51.938;8.488;2023-10-19T20:53:12;98069.28;;;13.75;100.00
4392;BME280;2210;51.938;8.488;2023-10-19T20:57:12;98063.75;;;13.75;100.00
4392;BME280;2210;51.938;8.488;2023-10-19T21:01:31;98063.75;;;13.75;100.00
4392;BME280;2210;51.938;8.488;2023-10-19T21:05:37;98060.50;;;13.73;100.00
4392;BME280;2210;51.938;8.488;2023-10-19T21:09:39;98055.44;;;13.75;100.00
4392;BME280;2210;51.938;8.488;2023-10-19T21:13:39;98044.38;;;13.75;100.00
4392;BME280;2210;51.938;8.488;2023-10-19T21:17:44;98041.94;;;13.74;100.00
4392;BME280;2210;51.938;8.488;2023-10-19T21:21:45;98032.00;;;13.73;100.00
4392;BME280;2210;51.938;8.488;2023-10-19T21:25:48;98036.72;;;13.72;100.00
4392;BME280;2210;51.938;8.488;2023-10-19T21:29:48;98027.94;;;13.79;100.00
4392;BME280;2210;51.938;8.488;2023-10-19T21:33:52;98023.91;;;13.85;100.00
4392;BME280;2210;51.938;8.488;2023-10-19T21:37:55;98010.72;;;13.91;100.00
4392;BME280;2210;51.938;8.488;2023-10-19T21:41:55;98007.31;;;13.94;100.00
4392;BME280;2210;51.938;8.488;2023-10-19T21:45:56;97983.50;;;13.93;100.00
4392;BME280;2210;51.938;8.488;2023-10-19T21:49:56;97970.50;;;13.93;100.00
4392;BME280;2210;51.938;8.488;2023-10-19T21:53:57;97970.16;;;13.95;100.00
4392;BME280;2210;51.938;8.488;2023-10-19T21:57:58;97958.56;;;13.93;100.00
4392;BME280;2210;51.938;8.488;2023-10-19T22:01:59;97948.81;;;13.87;100.00
4392;BME280;2210;51.938;8.488;2023-10-19T22:06:00;97961.53;;;13.88;100.00
4392;BME280;2210;51.938;8.488;2023-10-19T22:10:00;97951.06;;;13.85;100.00